createdAt,value
2022-10-17T00:00:35.745Z,2.58
2022-10-17T00:03:02.490Z,2.42
2022-10-17T00:05:28.997Z,2.25
2022-10-17T00:07:55.558Z,2.60
2022-10-17T00:10:22.494Z,2.30
2022-10-17T00:12:50.796Z,3.25
2022-10-17T00:15:19.544Z,2.50
2022-10-17T00:17:45.984Z,2.50
2022-10-17T00:20:13.424Z,2.60
2022-10-17T00:22:39.972Z,2.25
2022-10-17T00:25:06.625Z,2.63
2022-10-17T00:27:37.628Z,2.63
2022-10-17T00:30:05.685Z,2.80
2022-10-17T00:32:32.139Z,3.00
2022-10-17T00:34:59.032Z,2.80
2022-10-17T00:37:25.448Z,2.55
2022-10-17T00:39:51.871Z,2.78
2022-10-17T00:42:18.288Z,2.45
2022-10-17T00:44:47.361Z,2.80
2022-10-17T00:47:17.241Z,2.47
2022-10-17T00:49:43.806Z,2.65
2022-10-17T00:52:36.947Z,2.58
2022-10-17T00:55:15.370Z,2.92
2022-10-17T00:57:42.973Z,3.38
2022-10-17T01:00:10.353Z,2.55
2022-10-17T01:02:37.428Z,2.80
2022-10-17T01:05:04.561Z,3.08
2022-10-17T01:07:34.701Z,3.10
2022-10-17T01:10:05.817Z,2.55
2022-10-17T01:13:00.354Z,2.72
2022-10-17T01:16:01.177Z,2.80
2022-10-17T01:18:36.512Z,2.70
2022-10-17T01:21:39.134Z,3.00
2022-10-17T01:24:32.157Z,3.05
2022-10-17T01:27:30.229Z,2.70
2022-10-17T01:30:09.932Z,3.38
2022-10-17T01:32:40.366Z,3.03
2022-10-17T01:35:15.962Z,2.65
2022-10-17T01:38:15.845Z,3.10
2022-10-17T01:40:49.643Z,2.75
2022-10-17T01:43:37.191Z,3.17
2022-10-17T01:46:12.864Z,2.85
2022-10-17T01:48:41.088Z,2.88
2022-10-17T01:51:29.079Z,2.95
2022-10-17T01:54:07.260Z,2.60
2022-10-17T01:56:35.109Z,3.00
2022-10-17T01:59:05.553Z,2.13
2022-10-17T02:01:32.356Z,2.22
2022-10-17T02:04:00.943Z,2.05
2022-10-17T02:06:27.734Z,2.10
2022-10-17T02:08:55.619Z,2.00
2022-10-17T02:11:24.238Z,2.17
2022-10-17T02:14:00.330Z,1.83
2022-10-17T02:16:37.508Z,2.05
2022-10-17T02:19:26.971Z,1.80
2022-10-17T02:22:12.860Z,1.60
2022-10-17T02:24:49.700Z,1.80
2022-10-17T02:27:35.255Z,1.70
2022-10-17T02:30:09.708Z,1.70
2022-10-17T02:32:55.765Z,1.60
2022-10-17T02:35:23.325Z,1.58
2022-10-17T02:37:51.121Z,1.80
2022-10-17T02:40:21.058Z,1.70
2022-10-17T02:42:48.153Z,2.00
2022-10-17T02:45:14.757Z,1.70
2022-10-17T02:47:52.511Z,2.17
2022-10-17T02:50:22.769Z,1.80
2022-10-17T02:52:55.975Z,1.67
2022-10-17T02:55:36.136Z,2.17
2022-10-17T02:58:07.161Z,1.83
2022-10-17T03:00:40.164Z,2.33
2022-10-17T03:03:42.225Z,1.90
2022-10-17T03:06:08.680Z,1.90
2022-10-17T03:08:35.460Z,2.42
2022-10-17T03:11:02.507Z,1.95
2022-10-17T03:13:30.541Z,2.25
2022-10-17T03:15:57.443Z,2.38
2022-10-17T03:18:24.149Z,2.42
2022-10-17T03:20:55.344Z,2.30
2022-10-17T03:23:21.728Z,2.30
2022-10-17T03:25:48.281Z,2.45
2022-10-17T03:28:15.764Z,2.30
2022-10-17T03:30:42.220Z,2.70
2022-10-17T03:33:09.200Z,2.53
2022-10-17T03:35:39.845Z,2.35
2022-10-17T03:38:07.483Z,2.30
2022-10-17T03:40:33.918Z,2.15
2022-10-17T03:43:00.519Z,2.22
2022-10-17T03:45:28.504Z,2.53
2022-10-17T03:47:55.788Z,2.40
2022-10-17T03:50:22.200Z,2.20
2022-10-17T03:52:49.228Z,2.50
2022-10-17T03:55:16.482Z,2.72
2022-10-17T03:57:45.429Z,2.60
2022-10-17T04:00:13.361Z,2.30
2022-10-17T04:02:51.233Z,2.55
2022-10-17T04:05:18.998Z,2.50
2022-10-17T04:07:46.393Z,2.55
2022-10-17T04:10:14.521Z,2.58
2022-10-17T04:12:41.665Z,2.80
2022-10-17T04:15:08.816Z,2.58
2022-10-17T04:17:38.102Z,2.40
2022-10-17T04:20:05.934Z,2.42
2022-10-17T04:22:32.407Z,2.67
2022-10-17T04:24:58.943Z,2.85
2022-10-17T04:27:31.484Z,2.67
2022-10-17T04:29:57.983Z,2.78
2022-10-17T04:32:25.792Z,2.60
2022-10-17T04:35:06.991Z,2.38
2022-10-17T04:37:33.436Z,2.53
2022-10-17T04:44:58.978Z,2.90
2022-10-17T04:47:26.480Z,2.75
2022-10-17T04:49:52.942Z,3.28
2022-10-17T04:52:21.689Z,2.92
2022-10-17T04:54:49.829Z,2.92
2022-10-17T04:57:17.150Z,2.63
2022-10-17T04:59:51.933Z,2.85
2022-10-17T05:02:24.955Z,2.70
2022-10-17T05:04:51.900Z,2.72
2022-10-17T05:07:19.923Z,3.08
2022-10-17T05:10:03.555Z,2.92
2022-10-17T05:12:31.780Z,2.88
2022-10-17T05:14:58.391Z,2.90
2022-10-17T05:17:26.045Z,2.45
2022-10-17T05:19:52.470Z,2.83
2022-10-17T05:22:19.025Z,2.92
2022-10-17T05:24:45.749Z,2.72
2022-10-17T05:27:13.337Z,2.90
2022-10-17T05:29:40.175Z,2.83
2022-10-17T05:32:32.670Z,3.17
2022-10-17T05:34:59.357Z,3.28
2022-10-17T05:37:26.268Z,3.03
2022-10-17T05:42:22.176Z,3.00
2022-10-17T05:44:48.632Z,2.90
2022-10-17T05:47:17.864Z,3.05
2022-10-17T05:49:48.597Z,3.63
2022-10-17T05:52:20.784Z,3.78
2022-10-17T05:55:05.861Z,3.60
2022-10-17T05:57:32.360Z,2.80
2022-10-17T06:00:00.779Z,3.33
2022-10-17T06:02:29.175Z,3.10
2022-10-17T06:04:55.992Z,2.97
2022-10-17T06:07:23.736Z,3.33
2022-10-17T06:09:50.721Z,3.70
2022-10-17T06:12:17.719Z,3.47
2022-10-17T06:14:45.020Z,3.35
2022-10-17T06:17:16.071Z,4.05
2022-10-17T06:19:44.673Z,3.40
2022-10-17T06:22:12.407Z,3.55
2022-10-17T06:24:40.753Z,4.18
2022-10-17T06:27:11.020Z,3.65
2022-10-17T06:29:39.386Z,3.38
2022-10-17T06:32:08.655Z,4.30
2022-10-17T06:34:38.375Z,3.72
2022-10-17T06:37:04.876Z,4.10
2022-10-17T06:39:34.677Z,4.00
2022-10-17T06:42:08.156Z,3.80
2022-10-17T06:44:53.311Z,3.85
2022-10-17T06:47:22.380Z,4.30
2022-10-17T06:49:51.373Z,3.97
2022-10-17T06:52:29.296Z,3.80
2022-10-17T06:55:31.934Z,4.53
2022-10-17T06:58:13.168Z,4.13
2022-10-17T07:00:49.578Z,3.67
2022-10-17T07:03:17.253Z,3.83
2022-10-17T07:05:51.556Z,3.80
2022-10-17T07:08:17.984Z,3.85
2022-10-17T07:10:44.552Z,3.88
2022-10-17T07:13:11.000Z,4.30
2022-10-17T07:15:38.312Z,3.80
2022-10-17T07:18:05.637Z,4.60
2022-10-17T07:20:32.178Z,4.22
2022-10-17T07:22:58.584Z,3.75
2022-10-17T07:25:25.008Z,3.55
2022-10-17T07:27:55.959Z,3.95
2022-10-17T07:30:23.346Z,4.50
2022-10-17T07:32:58.557Z,3.72
2022-10-17T07:35:25.114Z,4.03
2022-10-17T07:37:51.857Z,3.38
2022-10-17T07:40:20.094Z,4.28
2022-10-17T07:42:47.199Z,4.10
2022-10-17T07:45:13.650Z,4.20
2022-10-17T07:47:42.980Z,3.75
2022-10-17T07:50:10.392Z,4.40
2022-10-17T07:52:36.839Z,4.55
2022-10-17T07:55:03.430Z,3.85
2022-10-17T07:57:29.829Z,4.20
2022-10-17T07:59:56.573Z,4.10
2022-10-17T08:02:27.155Z,5.15
2022-10-17T08:04:54.048Z,4.07
2022-10-17T08:07:25.327Z,4.20
2022-10-17T08:09:54.957Z,4.32
2022-10-17T08:12:21.885Z,4.57
2022-10-17T08:14:48.296Z,5.15
2022-10-17T08:17:14.727Z,4.88
2022-10-17T08:19:41.219Z,4.70
2022-10-17T08:22:08.012Z,4.43
2022-10-17T08:24:34.560Z,4.60
2022-10-17T08:27:01.264Z,3.90
2022-10-17T08:29:27.891Z,4.28
2022-10-17T08:31:58.672Z,3.30
2022-10-17T08:34:27.948Z,3.83
2022-10-17T08:36:54.382Z,3.60
2022-10-17T08:39:20.859Z,3.40
2022-10-17T08:42:05.881Z,3.70
2022-10-17T08:45:06.656Z,3.75
2022-10-17T08:47:37.295Z,3.42
2022-10-17T08:50:06.274Z,3.17
2022-10-17T08:52:32.555Z,3.08
2022-10-17T08:54:59.603Z,3.13
2022-10-17T08:57:26.031Z,3.85
2022-10-17T08:59:53.675Z,3.38
2022-10-17T09:02:38.511Z,3.00
2022-10-17T09:05:32.650Z,3.03
2022-10-17T09:08:31.865Z,2.65
2022-10-17T09:11:02.223Z,3.08
2022-10-17T09:14:00.660Z,3.40
2022-10-17T09:16:43.400Z,3.58
2022-10-17T09:19:17.427Z,3.45
2022-10-17T09:21:48.560Z,3.20
2022-10-17T09:24:22.337Z,3.10
2022-10-17T09:26:49.029Z,3.72
2022-10-17T09:29:20.260Z,3.15
2022-10-17T09:32:00.974Z,3.08
2022-10-17T09:34:28.516Z,3.10
2022-10-17T09:36:55.245Z,3.10
2022-10-17T09:39:24.557Z,3.00
2022-10-17T09:41:55.812Z,3.00
2022-10-17T09:44:31.072Z,3.78
2022-10-17T09:47:15.314Z,3.58
2022-10-17T09:49:44.366Z,3.28
2022-10-17T09:52:18.571Z,2.83
2022-10-17T09:54:57.565Z,2.75
2022-10-17T09:57:24.215Z,2.35
2022-10-17T10:00:03.070Z,2.70
2022-10-17T10:02:31.063Z,2.13
2022-10-17T10:05:05.916Z,2.35
2022-10-17T10:07:37.334Z,2.42
2022-10-17T10:10:06.627Z,1.92
2022-10-17T10:15:31.357Z,2.20
2022-10-17T10:17:57.743Z,1.70
2022-10-17T10:20:30.583Z,2.28
2022-10-17T10:23:20.980Z,1.88
2022-10-17T10:25:54.801Z,2.00
2022-10-17T10:28:23.644Z,2.03
2022-10-17T10:30:51.221Z,2.00
2022-10-17T10:33:20.946Z,2.15
2022-10-17T10:35:59.571Z,1.73
2022-10-17T10:38:26.188Z,2.00
2022-10-17T10:41:02.980Z,1.77
2022-10-17T10:43:35.882Z,1.98
2022-10-17T10:46:04.516Z,2.10
2022-10-17T10:48:35.113Z,2.05
2022-10-17T10:51:12.410Z,1.90
2022-10-17T10:53:46.023Z,1.90
2022-10-17T10:56:26.133Z,1.88
2022-10-17T10:59:20.646Z,1.70
2022-10-17T11:01:51.904Z,1.60
2022-10-17T11:04:29.289Z,2.10
2022-10-17T11:07:02.184Z,1.98
2022-10-17T11:09:35.932Z,1.70
2022-10-17T11:12:07.552Z,1.77
2022-10-17T11:15:07.798Z,1.88
2022-10-17T11:17:42.704Z,1.60
2022-10-17T11:20:08.979Z,1.75
2022-10-17T11:22:43.144Z,1.70
2022-10-17T11:25:12.402Z,2.22
2022-10-17T11:27:38.931Z,2.10
2022-10-17T11:30:05.928Z,1.60
2022-10-17T11:32:45.001Z,1.88
2022-10-17T11:38:36.333Z,1.88
2022-10-17T11:41:04.055Z,1.98
2022-10-17T11:43:42.211Z,1.92
2022-10-17T11:46:17.251Z,1.90
2022-10-17T11:48:48.844Z,2.08
2022-10-17T11:54:11.107Z,1.80
2022-10-17T11:56:55.747Z,1.83
2022-10-17T11:59:43.359Z,2.03
2022-10-17T12:02:15.265Z,1.98
2022-10-17T12:04:52.827Z,1.70
2022-10-17T12:07:55.566Z,2.40
2022-10-17T12:10:39.228Z,1.90
2022-10-17T12:13:28.246Z,1.83
2022-10-17T12:18:25.553Z,2.95
2022-10-17T12:20:59.553Z,2.03
2022-10-17T12:23:28.079Z,1.80
2022-10-17T12:26:05.269Z,2.03
2022-10-17T12:28:38.138Z,2.10
2022-10-17T12:31:09.895Z,2.17
2022-10-17T12:33:49.392Z,2.22
2022-10-17T12:36:18.724Z,2.10
2022-10-17T12:38:49.934Z,2.47
2022-10-17T12:41:17.299Z,2.20
2022-10-17T12:46:42.787Z,2.17
2022-10-17T12:49:46.194Z,2.03
2022-10-17T12:52:21.827Z,2.60
2022-10-17T12:55:18.323Z,1.88
2022-10-17T12:57:58.521Z,2.25
2022-10-17T13:00:49.704Z,2.13
2022-10-17T13:03:26.793Z,2.10
2022-10-17T13:05:59.512Z,1.92
2022-10-17T13:08:40.011Z,2.17
2022-10-17T13:11:07.806Z,2.17
2022-10-17T13:13:47.435Z,2.08
2022-10-17T13:16:34.493Z,2.05
2022-10-17T13:19:02.512Z,2.40
2022-10-17T13:21:29.536Z,1.90
2022-10-17T13:23:56.285Z,2.05
2022-10-17T13:26:25.660Z,2.58
2022-10-17T13:29:13.625Z,1.80
2022-10-17T13:31:42.872Z,2.23
2022-10-17T13:34:20.824Z,2.40
2022-10-17T13:36:48.986Z,2.00
2022-10-17T13:39:23.040Z,2.03
2022-10-17T13:41:59.041Z,1.83
2022-10-17T13:44:32.848Z,2.55
2022-10-17T13:46:59.465Z,2.30
2022-10-17T13:49:42.451Z,2.05
2022-10-17T13:52:21.388Z,2.20
2022-10-17T13:54:53.711Z,2.30
2022-10-17T13:57:38.289Z,2.83
2022-10-17T14:00:11.407Z,2.22
2022-10-17T14:02:42.658Z,2.20
2022-10-17T14:05:18.246Z,2.33
2022-10-17T14:08:11.240Z,2.00
2022-10-17T14:10:40.435Z,2.40
2022-10-17T14:13:10.687Z,1.83
2022-10-17T14:15:37.587Z,2.35
2022-10-17T14:18:08.937Z,2.28
2022-10-17T14:23:46.291Z,2.42
2022-10-17T14:26:16.713Z,2.42
2022-10-17T14:28:46.881Z,2.65
2022-10-17T14:31:25.891Z,2.28
2022-10-17T14:36:20.694Z,2.50
2022-10-17T14:38:50.020Z,2.30
2022-10-17T14:41:41.982Z,2.25
2022-10-17T14:44:20.437Z,2.42
2022-10-17T14:46:51.092Z,2.50
2022-10-17T14:49:24.777Z,2.28
2022-10-17T14:52:29.210Z,2.40
2022-10-17T14:54:56.637Z,2.38
2022-10-17T14:57:34.320Z,2.30
2022-10-17T15:00:00.700Z,2.47
2022-10-17T15:02:29.901Z,2.38
2022-10-17T15:04:56.790Z,2.25
2022-10-17T15:07:24.030Z,2.67
2022-10-17T15:09:52.224Z,2.40
2022-10-17T15:12:21.245Z,2.45
2022-10-17T15:17:20.773Z,2.35
2022-10-17T15:19:47.948Z,2.92
2022-10-17T15:22:15.934Z,2.95
2022-10-17T15:24:42.340Z,3.17
2022-10-17T15:27:17.437Z,2.75
2022-10-17T15:29:44.018Z,2.53
2022-10-17T15:32:10.405Z,2.80
2022-10-17T15:34:36.948Z,2.55
2022-10-17T15:37:04.328Z,2.35
2022-10-17T15:39:30.754Z,2.13
2022-10-17T15:41:57.347Z,2.60
2022-10-17T15:44:23.732Z,2.28
2022-10-17T15:46:50.145Z,3.15
2022-10-17T15:49:18.490Z,2.50
2022-10-17T15:51:44.995Z,2.72
2022-10-17T15:56:43.280Z,2.25
2022-10-17T15:59:16.031Z,2.88
2022-10-17T16:01:42.571Z,2.20
2022-10-17T16:04:14.805Z,2.42
2022-10-17T16:06:44.679Z,2.65
2022-10-17T16:09:11.113Z,2.60
2022-10-17T16:11:40.134Z,2.50
2022-10-17T16:14:10.403Z,2.60
2022-10-17T16:16:36.827Z,2.50
2022-10-17T16:19:03.610Z,2.75
2022-10-17T16:21:32.684Z,2.80
2022-10-17T16:26:25.484Z,2.67
2022-10-17T16:28:51.968Z,2.28
2022-10-17T16:31:22.472Z,2.83
2022-10-17T16:33:50.476Z,2.75
2022-10-17T16:36:16.944Z,2.78
2022-10-17T16:38:43.603Z,2.53
2022-10-17T16:41:20.304Z,3.10
2022-10-17T16:43:48.139Z,2.30
2022-10-17T16:46:14.615Z,3.17
2022-10-17T16:48:41.919Z,3.00
2022-10-17T16:51:08.384Z,2.80
2022-10-17T16:53:34.769Z,2.60
2022-10-17T17:27:48.333Z,3.17
2022-10-17T17:30:33.370Z,3.13
2022-10-17T17:36:32.664Z,3.42
2022-10-17T17:39:23.043Z,2.83
2022-10-17T17:42:02.223Z,3.22
2022-10-17T17:44:51.937Z,3.03
2022-10-17T17:47:46.212Z,3.20
2022-10-17T17:51:00.929Z,2.70
2022-10-17T17:53:47.159Z,2.80
2022-10-17T18:00:10.634Z,3.08
2022-10-17T18:03:20.578Z,3.13
2022-10-17T18:09:14.073Z,3.20
2022-10-17T18:12:26.486Z,3.10
2022-10-17T18:24:48.297Z,3.33
2022-10-17T18:37:14.499Z,3.53
2022-10-17T18:40:26.706Z,3.00
2022-10-17T18:43:31.978Z,3.33
2022-10-17T19:06:30.127Z,3.15
2022-10-17T19:18:27.114Z,3.97
2022-10-17T19:21:53.627Z,3.13
2022-10-17T19:27:31.604Z,2.90
2022-10-17T19:30:14.894Z,3.53
2022-10-17T19:35:53.982Z,3.03
2022-10-17T19:39:12.597Z,3.50
2022-10-17T19:45:19.196Z,3.47
2022-10-17T19:54:17.545Z,3.95
2022-10-17T20:00:21.399Z,3.03
2022-10-17T20:15:04.396Z,3.25
2022-10-17T20:20:54.173Z,3.25
2022-10-17T20:26:38.152Z,3.42
2022-10-17T20:32:39.505Z,3.08
2022-10-17T20:35:28.357Z,3.30
2022-10-17T20:38:08.663Z,3.38
2022-10-17T20:41:02.153Z,3.40
2022-10-17T20:43:39.826Z,3.33
2022-10-17T20:46:36.374Z,3.85
2022-10-17T20:58:02.921Z,3.35
2022-10-17T21:01:29.152Z,3.00
2022-10-17T21:04:47.590Z,3.35
2022-10-17T21:07:19.624Z,3.20
2022-10-17T21:13:14.789Z,3.20
2022-10-17T21:15:41.309Z,3.55
2022-10-17T21:18:07.825Z,3.50
2022-10-17T21:20:34.284Z,3.28
2022-10-17T21:23:00.781Z,3.40
2022-10-17T21:25:27.500Z,3.53
2022-10-17T21:27:54.063Z,3.50
2022-10-17T21:30:21.634Z,3.70
2022-10-17T21:32:51.639Z,3.45
2022-10-17T21:35:18.514Z,3.40
2022-10-17T21:37:44.950Z,3.60
2022-10-17T21:40:12.206Z,3.47
2022-10-17T21:42:38.664Z,3.72
2022-10-17T21:45:10.766Z,3.53
2022-10-17T21:47:54.874Z,3.22
2022-10-17T21:50:27.687Z,3.53
2022-10-17T21:52:54.165Z,3.88
2022-10-17T21:55:20.605Z,3.22
2022-10-17T21:57:47.121Z,3.50
2022-10-17T22:00:14.050Z,3.95
2022-10-17T22:02:40.459Z,3.40
2022-10-17T22:05:07.205Z,3.30
2022-10-17T22:07:33.981Z,3.83
2022-10-17T22:10:00.602Z,3.35
2022-10-17T22:12:27.139Z,3.65
2022-10-17T22:14:53.666Z,3.50
2022-10-17T22:17:20.121Z,3.58
2022-10-17T22:19:47.249Z,3.60
2022-10-17T22:22:13.882Z,3.83
2022-10-17T22:24:40.418Z,3.65
2022-10-17T22:27:07.078Z,3.85
2022-10-17T22:29:34.343Z,3.80
2022-10-17T22:32:00.766Z,3.40
2022-10-17T22:34:27.276Z,3.80
2022-10-17T22:36:53.989Z,3.90
2022-10-17T22:39:20.609Z,3.50
2022-10-17T22:41:47.121Z,3.70
2022-10-17T22:44:13.683Z,3.47
2022-10-17T22:46:40.150Z,3.72
2022-10-17T22:49:09.515Z,3.88
2022-10-17T22:51:35.998Z,4.00
2022-10-17T22:54:02.452Z,3.53
2022-10-17T22:56:28.923Z,3.50
2022-10-17T22:58:55.471Z,3.60
2022-10-17T23:01:23.459Z,3.67
2022-10-17T23:03:51.451Z,3.90
2022-10-17T23:06:20.815Z,3.70
2022-10-17T23:08:47.597Z,4.05
2022-10-17T23:11:14.082Z,3.47
2022-10-17T23:13:41.602Z,3.40
2022-10-17T23:16:08.369Z,4.00
2022-10-17T23:18:34.959Z,3.42
2022-10-17T23:21:01.397Z,3.50
2022-10-17T23:23:27.797Z,3.60
2022-10-17T23:25:54.272Z,3.55
2022-10-17T23:28:20.712Z,3.63
2022-10-17T23:30:47.168Z,4.00
2022-10-17T23:33:14.074Z,3.80
2022-10-17T23:35:40.660Z,3.92
2022-10-17T23:38:07.132Z,3.95
2022-10-17T23:40:34.741Z,3.88
2022-10-17T23:43:01.283Z,3.88
2022-10-17T23:45:27.776Z,3.83
2022-10-17T23:47:56.325Z,3.95
2022-10-17T23:50:22.713Z,3.72
2022-10-17T23:52:49.133Z,3.67
2022-10-17T23:55:16.151Z,4.18
2022-10-17T23:57:42.569Z,3.78
